sensor_id;sensor_type;location;lat;lon;timestamp;pressure;altitude;pressure_sealevel;temperature;humidity
57232;BME280;43488;46.934;8.276;2023-04-27T00:01:26;96522.59;;;10.85;89.76
57232;BME280;43488;46.934;8.276;2023-04-27T00:03:54;96516.31;;;10.86;90.13
57232;BME280;43488;46.934;8.276;2023-04-27T00:06:22;96517.13;;;10.86;92.19
57232;BME280;43488;46.934;8.276;2023-04-27T00:08:49;96504.00;;;10.79;93.86
57232;BME280;43488;46.934;8.276;2023-04-27T00:11:17;96509.28;;;10.79;94.51
57232;BME280;43488;46.934;8.276;2023-04-27T00:13:45;96499.13;;;10.76;94.91
57232;BME280;43488;46.934;8.276;2023-04-27T00:16:13;96506.81;;;10.78;95.14
57232;BME280;43488;46.934;8.276;2023-04-27T00:18:40;96503.00;;;10.67;96.09
57232;BME280;43488;46.934;8.276;2023-04-27T00:21:08;96499.78;;;10.72;96.36
57232;BME280;43488;46.934;8.276;2023-04-27T00:23:35;96507.25;;;10.68;96.42
57232;BME280;43488;46.934;8.276;2023-04-27T00:26:03;96510.69;;;10.69;96.96
57232;BME280;43488;46.934;8.276;2023-04-27T00:28:30;96501.81;;;10.63;97.00
57232;BME280;43488;46.934;8.276;2023-04-27T00:30:58;96502.63;;;10.64;97.57
57232;BME280;43488;46.934;8.276;2023-04-27T00:33:25;96499.19;;;10.70;96.79
57232;BME280;43488;46.934;8.276;2023-04-27T00:35:53;96491.47;;;10.68;96.00
57232;BME280;43488;46.934;8.276;2023-04-27T00:38:20;96499.59;;;10.60;96.13
57232;BME280;43488;46.934;8.276;2023-04-27T00:40:48;96496.16;;;10.60;96.30
57232;BME280;43488;46.934;8.276;2023-04-27T00:43:18;96500.59;;;10.59;96.66
57232;BME280;43488;46.934;8.276;2023-04-27T00:45:45;96494.31;;;10.60;97.02
57232;BME280;43488;46.934;8.276;2023-04-27T00:48:13;96489.06;;;10.60;97.20
57232;BME280;43488;46.934;8.276;2023-04-27T00:50:40;96487.63;;;10.64;97.02
57232;BME280;43488;46.934;8.276;2023-04-27T00:53:07;96502.41;;;10.65;96.69
57232;BME280;43488;46.934;8.276;2023-04-27T00:55:34;96497.56;;;10.62;96.56
57232;BME280;43488;46.934;8.276;2023-04-27T00:58:02;96502.84;;;10.62;96.38
57232;BME280;43488;46.934;8.276;2023-04-27T01:00:29;96504.47;;;10.63;95.68
57232;BME280;43488;46.934;8.276;2023-04-27T01:02:57;96508.31;;;10.61;95.26
57232;BME280;43488;46.934;8.276;2023-04-27T01:05:25;96503.84;;;10.61;94.00
57232;BME280;43488;46.934;8.276;2023-04-27T01:07:52;96506.06;;;10.64;93.30
57232;BME280;43488;46.934;8.276;2023-04-27T01:10:20;96509.28;;;10.66;93.81
57232;BME280;43488;46.934;8.276;2023-04-27T01:12:47;96510.16;;;10.53;95.98
57232;BME280;43488;46.934;8.276;2023-04-27T01:15:14;96508.94;;;10.49;96.26
57232;BME280;43488;46.934;8.276;2023-04-27T01:17:41;96508.72;;;10.51;96.67
57232;BME280;43488;46.934;8.276;2023-04-27T01:20:10;96510.16;;;10.47;96.44
57232;BME280;43488;46.934;8.276;2023-04-27T01:22:37;96513.81;;;10.46;96.16
57232;BME280;43488;46.934;8.276;2023-04-27T01:25:06;96512.59;;;10.42;96.36
57232;BME280;43488;46.934;8.276;2023-04-27T01:27:34;96513.44;;;10.42;96.69
57232;BME280;43488;46.934;8.276;2023-04-27T01:30:01;96511.38;;;10.44;96.76
57232;BME280;43488;46.934;8.276;2023-04-27T01:32:29;96519.28;;;10.31;97.85
57232;BME280;43488;46.934;8.276;2023-04-27T01:34:56;96513.22;;;10.31;97.83
57232;BME280;43488;46.934;8.276;2023-04-27T01:37:23;96518.69;;;10.36;97.93
57232;BME280;43488;46.934;8.276;2023-04-27T01:39:52;96516.66;;;10.38;97.90
57232;BME280;43488;46.934;8.276;2023-04-27T01:42:19;96524.34;;;10.33;97.52
57232;BME280;43488;46.934;8.276;2023-04-27T01:44:47;96515.66;;;10.32;96.59
57232;BME280;43488;46.934;8.276;2023-04-27T01:47:15;96512.22;;;10.32;96.09
57232;BME280;43488;46.934;8.276;2023-04-27T01:49:43;96517.69;;;10.30;95.77
57232;BME280;43488;46.934;8.276;2023-04-27T01:52:10;96524.34;;;10.33;95.13
57232;BME280;43488;46.934;8.276;2023-04-27T01:54:38;96515.47;;;10.27;95.47
57232;BME280;43488;46.934;8.276;2023-04-27T01:57:05;96529.59;;;10.19;96.65
57232;BME280;43488;46.934;8.276;2023-04-27T01:59:33;96522.53;;;10.13;97.07
57232;BME280;43488;46.934;8.276;2023-04-27T02:02:00;96523.34;;;10.07;96.88
57232;BME280;43488;46.934;8.276;2023-04-27T02:04:27;96526.38;;;10.04;97.00
57232;BME280;43488;46.934;8.276;2023-04-27T02:06:54;96524.75;;;9.96;96.89
57232;BME280;43488;46.934;8.276;2023-04-27T02:09:22;96538.91;;;9.95;96.20
57232;BME280;43488;46.934;8.276;2023-04-27T02:11:49;96527.19;;;9.98;95.85
57232;BME280;43488;46.934;8.276;2023-04-27T02:14:16;96523.94;;;9.96;95.60
57232;BME280;43488;46.934;8.276;2023-04-27T02:16:44;96530.41;;;9.87;95.40
57232;BME280;43488;46.934;8.276;2023-04-27T02:19:11;96532.03;;;9.81;95.25
57232;BME280;43488;46.934;8.276;2023-04-27T02:21:39;96539.72;;;9.76;95.67
57232;BME280;43488;46.934;8.276;2023-04-27T02:24:08;96541.34;;;9.77;94.91
57232;BME280;43488;46.934;8.276;2023-04-27T02:26:35;96547.59;;;9.76;94.31
57232;BME280;43488;46.934;8.276;2023-04-27T02:29:02;96551.25;;;9.75;94.23
57232;BME280;43488;46.934;8.276;2023-04-27T02:31:30;96533.63;;;9.69;94.99
57232;BME280;43488;46.934;8.276;2023-04-27T02:33:57;96531.22;;;9.61;94.61
57232;BME280;43488;46.934;8.276;2023-04-27T02:36:24;96531.41;;;9.59;94.93
57232;BME280;43488;46.934;8.276;2023-04-27T02:38:51;96528.16;;;9.57;94.96
57232;BME280;43488;46.934;8.276;2023-04-27T02:41:18;96532.63;;;9.57;94.79
57232;BME280;43488;46.934;8.276;2023-04-27T02:43:46;96532.22;;;9.53;94.54
57232;BME280;43488;46.934;8.276;2023-04-27T02:46:13;96539.28;;;9.53;94.94
57232;BME280;43488;46.934;8.276;2023-04-27T02:48:41;96526.38;;;9.51;94.31
57232;BME280;43488;46.934;8.276;2023-04-27T02:51:08;96535.22;;;9.50;94.33
57232;BME280;43488;46.934;8.276;2023-04-27T02:53:35;96533.22;;;9.46;94.52
57232;BME280;43488;46.934;8.276;2023-04-27T02:56:03;96540.88;;;9.47;94.81
57232;BME280;43488;46.934;8.276;2023-04-27T02:58:30;96534.81;;;9.40;93.84
57232;BME280;43488;46.934;8.276;2023-04-27T03:00:58;96535.41;;;9.35;93.89
57232;BME280;43488;46.934;8.276;2023-04-27T03:03:25;96542.47;;;9.28;93.96
57232;BME280;43488;46.934;8.276;2023-04-27T03:05:52;96543.44;;;9.21;94.17
57232;BME280;43488;46.934;8.276;2023-04-27T03:08:19;96547.09;;;9.20;94.62
57232;BME280;43488;46.934;8.276;2023-04-27T03:10:47;96553.34;;;9.19;95.68
57232;BME280;43488;46.934;8.276;2023-04-27T03:13:15;96539.59;;;9.17;96.44
57232;BME280;43488;46.934;8.276;2023-04-27T03:15:42;96539.41;;;9.18;96.04
57232;BME280;43488;46.934;8.276;2023-04-27T03:18:10;96554.34;;;9.18;95.61
57232;BME280;43488;46.934;8.276;2023-04-27T03:20:37;96548.88;;;9.12;95.10
57232;BME280;43488;46.934;8.276;2023-04-27T03:23:05;96548.47;;;9.09;95.24
57232;BME280;43488;46.934;8.276;2023-04-27T03:25:34;96552.09;;;9.08;95.63
57232;BME280;43488;46.934;8.276;2023-04-27T03:28:01;96552.31;;;9.06;95.74
57232;BME280;43488;46.934;8.276;2023-04-27T03:30:29;96552.03;;;8.95;95.91
57232;BME280;43488;46.934;8.276;2023-04-27T03:32:58;96547.53;;;8.82;96.98
57232;BME280;43488;46.934;8.276;2023-04-27T03:35:25;96555.00;;;8.78;97.97
57232;BME280;43488;46.934;8.276;2023-04-27T03:37:53;96553.19;;;8.79;99.50
57232;BME280;43488;46.934;8.276;2023-04-27T03:40:21;96553.81;;;8.81;99.46
57232;BME280;43488;46.934;8.276;2023-04-27T03:42:49;96556.44;;;8.81;99.23
57232;BME280;43488;46.934;8.276;2023-04-27T03:45:16;96553.00;;;8.80;98.78
57232;BME280;43488;46.934;8.276;2023-04-27T03:47:45;96552.56;;;8.77;98.27
57232;BME280;43488;46.934;8.276;2023-04-27T03:50:13;96544.28;;;8.73;97.91
57232;BME280;43488;46.934;8.276;2023-04-27T03:52:41;96562.25;;;8.76;97.67
57232;BME280;43488;46.934;8.276;2023-04-27T03:55:08;96555.56;;;8.74;97.23
57232;BME280;43488;46.934;8.276;2023-04-27T03:57:35;96559.16;;;8.66;97.57
57232;BME280;43488;46.934;8.276;2023-04-27T04:00:03;96565.41;;;8.65;97.48
57232;BME280;43488;46.934;8.276;2023-04-27T04:02:33;96573.28;;;8.65;97.86
57232;BME280;43488;46.934;8.276;2023-04-27T04:05:02;96568.84;;;8.66;97.44
57232;BME280;43488;46.934;8.276;2023-04-27T04:07:29;96567.25;;;8.65;97.36
57232;BME280;43488;46.934;8.276;2023-04-27T04:09:57;96573.69;;;8.62;97.28
57232;BME280;43488;46.934;8.276;2023-04-27T04:12:27;96573.25;;;8.59;97.24
57232;BME280;43488;46.934;8.276;2023-04-27T04:14:55;96577.28;;;8.54;97.31
57232;BME280;43488;46.934;8.276;2023-04-27T04:17:22;96569.97;;;8.50;97.08
57232;BME280;43488;46.934;8.276;2023-04-27T04:19:51;96578.03;;;8.48;97.11
57232;BME280;43488;46.934;8.276;2023-04-27T04:22:18;96576.41;;;8.47;97.45
57232;BME280;43488;46.934;8.276;2023-04-27T04:24:45;96581.19;;;8.37;97.01
57232;BME280;43488;46.934;8.276;2023-04-27T04:27:13;96576.94;;;8.36;97.73
57232;BME280;43488;46.934;8.276;2023-04-27T04:29:40;96580.00;;;8.40;98.12
57232;BME280;43488;46.934;8.276;2023-04-27T04:32:10;96584.47;;;8.46;98.09
57232;BME280;43488;46.934;8.276;2023-04-27T04:34:38;96583.19;;;8.35;98.43
57232;BME280;43488;46.934;8.276;2023-04-27T04:37:05;96577.88;;;8.28;98.58
57232;BME280;43488;46.934;8.276;2023-04-27T04:39:32;96580.94;;;8.32;98.66
57232;BME280;43488;46.934;8.276;2023-04-27T04:42:01;96579.78;;;8.35;97.90
57232;BME280;43488;46.934;8.276;2023-04-27T04:44:29;96584.19;;;8.34;97.76
57232;BME280;43488;46.934;8.276;2023-04-27T04:46:57;96572.06;;;8.33;98.22
57232;BME280;43488;46.934;8.276;2023-04-27T04:49:24;96567.47;;;8.35;97.91
57232;BME280;43488;46.934;8.276;2023-04-27T04:51:53;96578.13;;;8.34;97.24
57232;BME280;43488;46.934;8.276;2023-04-27T04:54:20;96582.25;;;8.21;97.85
57232;BME280;43488;46.934;8.276;2023-04-27T04:56:48;96582.38;;;8.13;99.10
57232;BME280;43488;46.934;8.276;2023-04-27T04:59:17;96580.59;;;8.14;99.16
57232;BME280;43488;46.934;8.276;2023-04-27T05:01:45;96579.59;;;8.15;98.54
57232;BME280;43488;46.934;8.276;2023-04-27T05:04:12;96578.59;;;8.16;98.28
57232;BME280;43488;46.934;8.276;2023-04-27T05:06:39;96578.19;;;8.19;98.26
57232;BME280;43488;46.934;8.276;2023-04-27T05:09:08;96583.06;;;8.22;98.45
57232;BME280;43488;46.934;8.276;2023-04-27T05:11:35;96579.47;;;8.23;98.33
57232;BME280;43488;46.934;8.276;2023-04-27T05:14:03;96581.88;;;8.24;98.16
57232;BME280;43488;46.934;8.276;2023-04-27T05:16:30;96578.25;;;8.25;98.05
57232;BME280;43488;46.934;8.276;2023-04-27T05:18:58;96583.44;;;8.19;98.22
57232;BME280;43488;46.934;8.276;2023-04-27T05:21:25;96589.09;;;8.16;98.76
57232;BME280;43488;46.934;8.276;2023-04-27T05:23:53;96585.84;;;8.14;99.56
57232;BME280;43488;46.934;8.276;2023-04-27T05:26:21;96588.69;;;8.19;99.69
57232;BME280;43488;46.934;8.276;2023-04-27T05:28:48;96591.44;;;8.32;99.47
57232;BME280;43488;46.934;8.276;2023-04-27T05:31:16;96578.13;;;8.34;99.28
57232;BME280;43488;46.934;8.276;2023-04-27T05:33:43;96586.03;;;8.40;99.44
57232;BME280;43488;46.934;8.276;2023-04-27T05:36:11;96583.47;;;8.47;99.06
57232;BME280;43488;46.934;8.276;2023-04-27T05:38:38;96587.53;;;8.49;98.72
57232;BME280;43488;46.934;8.276;2023-04-27T05:41:06;96588.19;;;8.58;98.70
57232;BME280;43488;46.934;8.276;2023-04-27T05:43:34;96579.78;;;8.69;97.92
57232;BME280;43488;46.934;8.276;2023-04-27T05:46:04;96589.94;;;8.79;97.58
57232;BME280;43488;46.934;8.276;2023-04-27T05:48:32;96577.88;;;8.91;98.00
57232;BME280;43488;46.934;8.276;2023-04-27T05:51:02;96585.59;;;8.99;97.56
57232;BME280;43488;46.934;8.276;2023-04-27T05:53:32;96587.63;;;9.04;97.93
57232;BME280;43488;46.934;8.276;2023-04-27T05:56:00;96585.22;;;9.09;100.00
57232;BME280;43488;46.934;8.276;2023-04-27T05:58:30;96591.28;;;9.09;99.69
57232;BME280;43488;46.934;8.276;2023-04-27T06:00:59;96590.13;;;9.19;99.08
57232;BME280;43488;46.934;8.276;2023-04-27T06:03:29;96600.63;;;9.19;99.26
57232;BME280;43488;46.934;8.276;2023-04-27T06:05:58;96595.84;;;9.35;98.99
57232;BME280;43488;46.934;8.276;2023-04-27T06:08:28;96588.19;;;9.47;98.00
57232;BME280;43488;46.934;8.276;2023-04-27T06:10:56;96592.22;;;9.50;96.88
57232;BME280;43488;46.934;8.276;2023-04-27T06:13:24;96603.19;;;9.53;96.87
57232;BME280;43488;46.934;8.276;2023-04-27T06:15:51;96597.91;;;9.60;97.26
57232;BME280;43488;46.934;8.276;2023-04-27T06:18:19;96601.78;;;9.64;95.84
57232;BME280;43488;46.934;8.276;2023-04-27T06:20:48;96602.63;;;9.71;95.73
57232;BME280;43488;46.934;8.276;2023-04-27T06:23:17;96593.75;;;9.79;95.74
57232;BME280;43488;46.934;8.276;2023-04-27T06:25:44;96598.78;;;9.87;94.15
57232;BME280;43488;46.934;8.276;2023-04-27T06:28:12;96594.75;;;10.04;95.82
57232;BME280;43488;46.934;8.276;2023-04-27T06:30:39;96595.78;;;10.16;95.58
57232;BME280;43488;46.934;8.276;2023-04-27T06:33:08;96589.72;;;10.16;91.60
57232;BME280;43488;46.934;8.276;2023-04-27T06:35:35;96593.97;;;10.23;91.91
57232;BME280;43488;46.934;8.276;2023-04-27T06:38:03;96600.06;;;10.31;90.56
57232;BME280;43488;46.934;8.276;2023-04-27T06:40:30;96601.28;;;10.35;89.92
57232;BME280;43488;46.934;8.276;2023-04-27T06:42:59;96592.56;;;10.41;89.49
57232;BME280;43488;46.934;8.276;2023-04-27T06:45:26;96595.78;;;10.49;90.82
57232;BME280;43488;46.934;8.276;2023-04-27T06:47:54;96602.88;;;10.56;92.09
57232;BME280;43488;46.934;8.276;2023-04-27T06:50:22;96600.03;;;10.64;91.96
57232;BME280;43488;46.934;8.276;2023-04-27T06:52:49;96596.78;;;10.68;91.97
57232;BME280;43488;46.934;8.276;2023-04-27T06:55:16;96599.81;;;10.72;91.00
57232;BME280;43488;46.934;8.276;2023-04-27T06:57:43;96600.59;;;10.86;90.64
57232;BME280;43488;46.934;8.276;2023-04-27T07:00:12;96599.56;;;10.93;89.68
57232;BME280;43488;46.934;8.276;2023-04-27T07:02:40;96593.47;;;10.99;89.15
57232;BME280;43488;46.934;8.276;2023-04-27T07:05:07;96599.78;;;10.92;89.34
57232;BME280;43488;46.934;8.276;2023-04-27T07:07:35;96607.44;;;11.00;89.51
57232;BME280;43488;46.934;8.276;2023-04-27T07:10:03;96609.88;;;11.08;87.99
57232;BME280;43488;46.934;8.276;2023-04-27T07:12:31;96603.75;;;11.14;86.78
57232;BME280;43488;46.934;8.276;2023-04-27T07:14:59;96602.72;;;11.22;86.02
57232;BME280;43488;46.934;8.276;2023-04-27T07:17:26;96604.72;;;11.26;84.82
57232;BME280;43488;46.934;8.276;2023-04-27T07:19:54;96603.66;;;11.40;84.44
57232;BME280;43488;46.934;8.276;2023-04-27T07:22:22;96608.06;;;11.53;83.38
57232;BME280;43488;46.934;8.276;2023-04-27T07:24:50;96599.94;;;11.55;83.42
57232;BME280;43488;46.934;8.276;2023-04-27T07:27:17;96599.47;;;11.64;83.35
57232;BME280;43488;46.934;8.276;2023-04-27T07:29:46;96610.38;;;11.75;83.72
57232;BME280;43488;46.934;8.276;2023-04-27T07:32:14;96598.81;;;11.76;81.34
57232;BME280;43488;46.934;8.276;2023-04-27T07:34:42;96601.19;;;11.90;81.20
57232;BME280;43488;46.934;8.276;2023-04-27T07:37:10;96596.25;;;12.01;85.18
57232;BME280;43488;46.934;8.276;2023-04-27T07:39:37;96598.69;;;12.27;88.35
57232;BME280;43488;46.934;8.276;2023-04-27T07:42:05;96590.06;;;12.38;86.98
57232;BME280;43488;46.934;8.276;2023-04-27T07:44:33;96595.28;;;12.45;85.00
57232;BME280;43488;46.934;8.276;2023-04-27T07:47:01;96590.69;;;12.59;86.39
57232;BME280;43488;46.934;8.276;2023-04-27T07:49:31;96588.94;;;12.71;84.45
57232;BME280;43488;46.934;8.276;2023-04-27T07:51:58;96578.47;;;12.82;85.07
57232;BME280;43488;46.934;8.276;2023-04-27T07:54:25;96569.59;;;12.95;80.94
57232;BME280;43488;46.934;8.276;2023-04-27T07:56:53;96567.50;;;13.16;81.88
57232;BME280;43488;46.934;8.276;2023-04-27T07:59:21;96566.66;;;13.22;80.29
57232;BME280;43488;46.934;8.276;2023-04-27T08:01:48;96560.19;;;13.36;81.46
57232;BME280;43488;46.934;8.276;2023-04-27T08:04:15;96564.50;;;13.49;80.20
57232;BME280;43488;46.934;8.276;2023-04-27T08:06:45;96565.44;;;13.54;79.67
57232;BME280;43488;46.934;8.276;2023-04-27T08:09:12;96567.06;;;13.55;79.72
57232;BME280;43488;46.934;8.276;2023-04-27T08:11:40;96553.06;;;13.66;78.33
57232;BME280;43488;46.934;8.276;2023-04-27T08:14:08;96560.13;;;13.84;81.52
57232;BME280;43488;46.934;8.276;2023-04-27T08:16:43;96551.78;;;13.99;78.97
57232;BME280;43488;46.934;8.276;2023-04-27T08:19:10;96549.69;;;14.01;78.34
57232;BME280;43488;46.934;8.276;2023-04-27T08:21:38;96546.72;;;14.09;75.74
57232;BME280;43488;46.934;8.276;2023-04-27T08:24:05;96547.06;;;14.24;77.28
57232;BME280;43488;46.934;8.276;2023-04-27T08:26:33;96547.66;;;14.38;77.10
57232;BME280;43488;46.934;8.276;2023-04-27T08:29:01;96544.56;;;14.53;75.39
57232;BME280;43488;46.934;8.276;2023-04-27T08:31:28;96548.50;;;14.50;73.92
57232;BME280;43488;46.934;8.276;2023-04-27T08:33:56;96550.56;;;14.48;72.90
57232;BME280;43488;46.934;8.276;2023-04-27T08:36:24;96543.19;;;14.62;72.59
57232;BME280;43488;46.934;8.276;2023-04-27T08:38:52;96540.31;;;14.75;71.46
57232;BME280;43488;46.934;8.276;2023-04-27T08:41:21;96546.50;;;14.93;73.27
57232;BME280;43488;46.934;8.276;2023-04-27T08:43:50;96541.53;;;14.96;72.88
57232;BME280;43488;46.934;8.276;2023-04-27T08:46:23;96536.09;;;15.03;72.48
57232;BME280;43488;46.934;8.276;2023-04-27T08:48:55;96538.41;;;14.99;71.03
57232;BME280;43488;46.934;8.276;2023-04-27T08:51:23;96541.53;;;14.96;67.88
57232;BME280;43488;46.934;8.276;2023-04-27T08:53:57;96538.97;;;15.13;63.85
57232;BME280;43488;46.934;8.276;2023-04-27T08:56:27;96540.41;;;15.32;62.98
57232;BME280;43488;46.934;8.276;2023-04-27T08:58:56;96536.69;;;15.33;59.86
57232;BME280;43488;46.934;8.276;2023-04-27T09:01:24;96540.22;;;15.51;59.86
57232;BME280;43488;46.934;8.276;2023-04-27T09:03:58;96533.31;;;15.50;58.02
57232;BME280;43488;46.934;8.276;2023-04-27T09:06:34;96530.63;;;15.61;60.50
57232;BME280;43488;46.934;8.276;2023-04-27T09:09:03;96537.88;;;15.66;57.44
57232;BME280;43488;46.934;8.276;2023-04-27T09:11:36;96538.56;;;15.61;56.80
57232;BME280;43488;46.934;8.276;2023-04-27T09:14:19;96528.88;;;15.67;55.89
57232;BME280;43488;46.934;8.276;2023-04-27T09:16:56;96537.50;;;15.74;58.40
57232;BME280;43488;46.934;8.276;2023-04-27T09:19:27;96537.31;;;15.81;56.67
57232;BME280;43488;46.934;8.276;2023-04-27T09:22:08;96530.56;;;15.90;56.80
57232;BME280;43488;46.934;8.276;2023-04-27T09:24:37;96527.94;;;16.07;55.14
57232;BME280;43488;46.934;8.276;2023-04-27T09:27:06;96529.94;;;16.33;57.97
57232;BME280;43488;46.934;8.276;2023-04-27T09:29:36;96530.09;;;16.43;55.27
57232;BME280;43488;46.934;8.276;2023-04-27T09:32:17;96521.72;;;16.52;57.65
57232;BME280;43488;46.934;8.276;2023-04-27T09:34:47;96525.56;;;16.61;56.01
57232;BME280;43488;46.934;8.276;2023-04-27T09:37:15;96520.25;;;16.61;57.75
57232;BME280;43488;46.934;8.276;2023-04-27T09:39:43;96526.44;;;16.83;58.07
57232;BME280;43488;46.934;8.276;2023-04-27T09:42:11;96530.06;;;16.77;57.30
57232;BME280;43488;46.934;8.276;2023-04-27T09:44:39;96525.13;;;16.86;57.44
57232;BME280;43488;46.934;8.276;2023-04-27T09:47:08;96523.66;;;16.95;58.03
57232;BME280;43488;46.934;8.276;2023-04-27T09:49:36;96522.66;;;16.79;58.41
57232;BME280;43488;46.934;8.276;2023-04-27T09:52:04;96522.81;;;16.72;60.55
57232;BME280;43488;46.934;8.276;2023-04-27T09:54:33;96522.53;;;16.91;58.79
57232;BME280;43488;46.934;8.276;2023-04-27T09:57:23;96516.84;;;16.82;57.95
57232;BME280;43488;46.934;8.276;2023-04-27T10:06:34;96517.00;;;16.92;59.88
57232;BME280;43488;46.934;8.276;2023-04-27T10:09:09;96513.41;;;17.03;60.41
57232;BME280;43488;46.934;8.276;2023-04-27T10:11:39;96504.91;;;17.06;59.48
57232;BME280;43488;46.934;8.276;2023-04-27T10:14:17;96528.03;;;17.06;60.18
57232;BME280;43488;46.934;8.276;2023-04-27T10:16:56;96524.44;;;17.17;60.55
57232;BME280;43488;46.934;8.276;2023-04-27T10:19:24;96518.88;;;17.41;59.63
57232;BME280;43488;46.934;8.276;2023-04-27T10:22:00;96520.56;;;17.25;57.94
57232;BME280;43488;46.934;8.276;2023-04-27T10:24:40;96514.53;;;17.34;57.84
57232;BME280;43488;46.934;8.276;2023-04-27T10:27:10;96523.28;;;17.30;58.04
57232;BME280;43488;46.934;8.276;2023-04-27T10:29:41;96515.03;;;17.31;57.23
57232;BME280;43488;46.934;8.276;2023-04-27T10:32:23;96520.28;;;17.26;58.25
57232;BME280;43488;46.934;8.276;2023-04-27T10:35:01;96516.84;;;17.26;57.93
57232;BME280;43488;46.934;8.276;2023-04-27T10:37:42;96520.38;;;17.10;58.12
57232;BME280;43488;46.934;8.276;2023-04-27T10:40:11;96514.19;;;17.04;59.11
57232;BME280;43488;46.934;8.276;2023-04-27T10:42:47;96509.63;;;17.21;59.11
57232;BME280;43488;46.934;8.276;2023-04-27T10:45:26;96509.72;;;17.31;59.67
57232;BME280;43488;46.934;8.276;2023-04-27T10:47:59;96500.63;;;17.54;59.98
57232;BME280;43488;46.934;8.276;2023-04-27T10:50:27;96501.44;;;17.77;59.56
57232;BME280;43488;46.934;8.276;2023-04-27T10:53:04;96503.31;;;17.81;60.05
57232;BME280;43488;46.934;8.276;2023-04-27T10:55:32;96508.25;;;17.95;59.09
57232;BME280;43488;46.934;8.276;2023-04-27T10:58:01;96508.44;;;17.88;58.20
57232;BME280;43488;46.934;8.276;2023-04-27T11:00:39;96502.69;;;18.01;58.99
57232;BME280;43488;46.934;8.276;2023-04-27T11:03:14;96494.00;;;18.16;56.79
57232;BME280;43488;46.934;8.276;2023-04-27T11:06:03;96500.53;;;18.30;58.35
57232;BME280;43488;46.934;8.276;2023-04-27T11:08:31;96493.94;;;18.43;56.65
57232;BME280;43488;46.934;8.276;2023-04-27T11:11:02;96487.75;;;18.32;56.18
57232;BME280;43488;46.934;8.276;2023-04-27T11:13:32;96486.09;;;18.26;57.78
57232;BME280;43488;46.934;8.276;2023-04-27T11:16:00;96493.81;;;18.28;57.96
57232;BME280;43488;46.934;8.276;2023-04-27T11:18:31;96488.50;;;18.28;56.76
57232;BME280;43488;46.934;8.276;2023-04-27T11:21:20;96487.59;;;18.54;55.73
57232;BME280;43488;46.934;8.276;2023-04-27T11:23:48;96487.22;;;18.35;56.45
57232;BME280;43488;46.934;8.276;2023-04-27T11:26:18;96482.31;;;18.59;55.89
57232;BME280;43488;46.934;8.276;2023-04-27T11:29:09;96477.13;;;18.85;57.02
57232;BME280;43488;46.934;8.276;2023-04-27T11:31:44;96481.66;;;18.84;55.06
57232;BME280;43488;46.934;8.276;2023-04-27T11:36:43;96475.06;;;19.02;54.81
57232;BME280;43488;46.934;8.276;2023-04-27T11:39:17;96467.59;;;19.04;53.27
57232;BME280;43488;46.934;8.276;2023-04-27T11:41:45;96473.00;;;19.24;55.13
57232;BME280;43488;46.934;8.276;2023-04-27T11:44:12;96466.63;;;19.46;53.03
57232;BME280;43488;46.934;8.276;2023-04-27T11:46:43;96457.56;;;19.52;53.10
57232;BME280;43488;46.934;8.276;2023-04-27T11:49:11;96462.69;;;19.64;53.27
57232;BME280;43488;46.934;8.276;2023-04-27T11:51:38;96460.31;;;19.67;50.67
57232;BME280;43488;46.934;8.276;2023-04-27T11:54:11;96453.06;;;19.63;51.17
57232;BME280;43488;46.934;8.276;2023-04-27T11:56:41;96448.53;;;19.58;52.34
57232;BME280;43488;46.934;8.276;2023-04-27T11:59:21;96449.63;;;19.57;52.61
57232;BME280;43488;46.934;8.276;2023-04-27T12:01:53;96460.50;;;19.50;52.61
57232;BME280;43488;46.934;8.276;2023-04-27T12:04:20;96454.88;;;19.47;53.31
57232;BME280;43488;46.934;8.276;2023-04-27T12:06:48;96455.47;;;19.64;51.34
57232;BME280;43488;46.934;8.276;2023-04-27T12:09:15;96449.59;;;19.62;49.16
57232;BME280;43488;46.934;8.276;2023-04-27T12:11:43;96450.16;;;19.84;51.07
57232;BME280;43488;46.934;8.276;2023-04-27T12:14:10;96442.94;;;19.80;51.72
57232;BME280;43488;46.934;8.276;2023-04-27T12:16:38;96452.28;;;19.82;51.34
57232;BME280;43488;46.934;8.276;2023-04-27T12:19:05;96447.22;;;19.81;51.91
57232;BME280;43488;46.934;8.276;2023-04-27T12:21:32;96446.16;;;19.97;47.52
57232;BME280;43488;46.934;8.276;2023-04-27T12:23:59;96444.75;;;20.35;49.34
57232;BME280;43488;46.934;8.276;2023-04-27T12:26:27;96446.91;;;20.43;50.06
57232;BME280;43488;46.934;8.276;2023-04-27T12:28:54;96441.56;;;20.28;48.73
57232;BME280;43488;46.934;8.276;2023-04-27T12:31:22;96435.63;;;20.57;48.49
57232;BME280;43488;46.934;8.276;2023-04-27T12:33:51;96436.63;;;20.81;49.29
57232;BME280;43488;46.934;8.276;2023-04-27T12:36:19;96436.09;;;20.79;48.17
57232;BME280;43488;46.934;8.276;2023-04-27T12:38:46;96441.44;;;20.79;47.84
57232;BME280;43488;46.934;8.276;2023-04-27T12:41:13;96443.94;;;20.60;47.83
57232;BME280;43488;46.934;8.276;2023-04-27T12:43:40;96438.34;;;20.36;47.45
57232;BME280;43488;46.934;8.276;2023-04-27T12:46:09;96438.84;;;20.38;48.16
57232;BME280;43488;46.934;8.276;2023-04-27T12:48:37;96429.25;;;20.42;47.30
57232;BME280;43488;46.934;8.276;2023-04-27T12:51:04;96434.28;;;20.69;46.34
57232;BME280;43488;46.934;8.276;2023-04-27T12:53:33;96434.56;;;20.63;48.50
57232;BME280;43488;46.934;8.276;2023-04-27T12:56:01;96431.09;;;20.57;46.52
57232;BME280;43488;46.934;8.276;2023-04-27T12:58:29;96439.94;;;20.58;45.94
57232;BME280;43488;46.934;8.276;2023-04-27T13:00:56;96426.25;;;20.64;47.00
57232;BME280;43488;46.934;8.276;2023-04-27T13:03:24;96432.41;;;20.65;46.79
57232;BME280;43488;46.934;8.276;2023-04-27T13:05:51;96425.16;;;20.70;47.04
57232;BME280;43488;46.934;8.276;2023-04-27T13:08:19;96428.28;;;20.93;48.18
57232;BME280;43488;46.934;8.276;2023-04-27T13:10:47;96425.69;;;20.78;47.56
57232;BME280;43488;46.934;8.276;2023-04-27T13:13:15;96420.09;;;20.69;48.00
57232;BME280;43488;46.934;8.276;2023-04-27T13:15:42;96421.31;;;20.92;48.09
57232;BME280;43488;46.934;8.276;2023-04-27T13:18:09;96416.34;;;20.70;47.35
57232;BME280;43488;46.934;8.276;2023-04-27T13:20:37;96415.25;;;20.71;46.21